sensor_id;sensor_type;location;lat;lon;timestamp;P1;durP1;ratioP1;P2;durP2;ratioP2
32152;SDS011;18656;50.580;11.392;2023-08-01T00:00:40;3.03;;;2.40;;
32152;SDS011;18656;50.580;11.392;2023-08-01T00:03:07;2.28;;;2.08;;
32152;SDS011;18656;50.580;11.392;2023-08-01T00:05:35;2.17;;;1.98;;
32152;SDS011;18656;50.580;11.392;2023-08-01T00:08:02;2.25;;;1.90;;
32152;SDS011;18656;50.580;11.392;2023-08-01T00:10:29;1.95;;;1.83;;
32152;SDS011;18656;50.580;11.392;2023-08-01T00:12:56;1.73;;;1.63;;
32152;SDS011;18656;50.580;11.392;2023-08-01T00:15:24;2.38;;;1.80;;
32152;SDS011;18656;50.580;11.392;2023-08-01T00:17:51;1.92;;;1.80;;
32152;SDS011;18656;50.580;11.392;2023-08-01T00:20:18;1.80;;;1.42;;
32152;SDS011;18656;50.580;11.392;2023-08-01T00:22:45;1.65;;;1.55;;
32152;SDS011;18656;50.580;11.392;2023-08-01T00:25:12;3.10;;;1.65;;
32152;SDS011;18656;50.580;11.392;2023-08-01T00:27:40;2.33;;;1.50;;
32152;SDS011;18656;50.580;11.392;2023-08-01T00:30:07;1.77;;;1.67;;
32152;SDS011;18656;50.580;11.392;2023-08-01T00:32:35;2.55;;;1.70;;
32152;SDS011;18656;50.580;11.392;2023-08-01T00:35:03;1.98;;;1.60;;
32152;SDS011;18656;50.580;11.392;2023-08-01T00:37:30;2.47;;;1.58;;
32152;SDS011;18656;50.580;11.392;2023-08-01T00:39:57;2.45;;;1.65;;
32152;SDS011;18656;50.580;11.392;2023-08-01T00:42:25;1.77;;;1.67;;
32152;SDS011;18656;50.580;11.392;2023-08-01T00:44:52;2.97;;;1.50;;
32152;SDS011;18656;50.580;11.392;2023-08-01T00:47:20;1.65;;;1.42;;
32152;SDS011;18656;50.580;11.392;2023-08-01T00:49:47;1.48;;;1.40;;
32152;SDS011;18656;50.580;11.392;2023-08-01T00:52:14;2.40;;;1.30;;
32152;SDS011;18656;50.580;11.392;2023-08-01T00:54:41;1.63;;;1.50;;
32152;SDS011;18656;50.580;11.392;2023-08-01T00:57:09;2.53;;;1.50;;
32152;SDS011;18656;50.580;11.392;2023-08-01T00:59:36;1.55;;;1.45;;
32152;SDS011;18656;50.580;11.392;2023-08-01T01:02:04;2.13;;;1.30;;
32152;SDS011;18656;50.580;11.392;2023-08-01T01:04:31;4.35;;;1.27;;
32152;SDS011;18656;50.580;11.392;2023-08-01T01:07:05;1.10;;;1.00;;
32152;SDS011;18656;50.580;11.392;2023-08-01T01:09:33;0.98;;;0.98;;
32152;SDS011;18656;50.580;11.392;2023-08-01T01:12:00;4.47;;;0.93;;
32152;SDS011;18656;50.580;11.392;2023-08-01T01:14:28;2.15;;;1.25;;
32152;SDS011;18656;50.580;11.392;2023-08-01T01:16:55;4.03;;;0.98;;
32152;SDS011;18656;50.580;11.392;2023-08-01T01:19:23;5.20;;;1.23;;
32152;SDS011;18656;50.580;11.392;2023-08-01T01:21:50;2.05;;;1.25;;
32152;SDS011;18656;50.580;11.392;2023-08-01T01:24:17;1.55;;;0.85;;
32152;SDS011;18656;50.580;11.392;2023-08-01T01:26:45;1.02;;;1.02;;
32152;SDS011;18656;50.580;11.392;2023-08-01T01:29:13;1.33;;;1.23;;
32152;SDS011;18656;50.580;11.392;2023-08-01T01:31:41;7.65;;;1.63;;
32152;SDS011;18656;50.580;11.392;2023-08-01T01:34:08;2.28;;;1.40;;
32152;SDS011;18656;50.580;11.392;2023-08-01T01:36:36;2.88;;;0.95;;
32152;SDS011;18656;50.580;11.392;2023-08-01T01:39:04;1.05;;;1.00;;
32152;SDS011;18656;50.580;11.392;2023-08-01T01:41:31;1.02;;;1.00;;
32152;SDS011;18656;50.580;11.392;2023-08-01T01:43:58;3.53;;;1.10;;
32152;SDS011;18656;50.580;11.392;2023-08-01T01:46:26;0.98;;;0.93;;
32152;SDS011;18656;50.580;11.392;2023-08-01T01:48:53;1.50;;;1.40;;
32152;SDS011;18656;50.580;11.392;2023-08-01T01:51:25;0.90;;;0.90;;
32152;SDS011;18656;50.580;11.392;2023-08-01T01:53:52;0.95;;;0.93;;
32152;SDS011;18656;50.580;11.392;2023-08-01T01:56:19;1.52;;;1.17;;
32152;SDS011;18656;50.580;11.392;2023-08-01T01:58:47;1.20;;;1.13;;
32152;SDS011;18656;50.580;11.392;2023-08-01T02:01:14;0.70;;;0.70;;
32152;SDS011;18656;50.580;11.392;2023-08-01T02:03:41;0.75;;;0.75;;
32152;SDS011;18656;50.580;11.392;2023-08-01T02:06:09;1.00;;;0.90;;
32152;SDS011;18656;50.580;11.392;2023-08-01T02:08:36;0.80;;;0.80;;
32152;SDS011;18656;50.580;11.392;2023-08-01T02:11:03;1.58;;;0.95;;
32152;SDS011;18656;50.580;11.392;2023-08-01T02:13:31;1.60;;;0.70;;
32152;SDS011;18656;50.580;11.392;2023-08-01T02:16:00;0.75;;;0.70;;
32152;SDS011;18656;50.580;11.392;2023-08-01T02:18:27;0.80;;;0.80;;
32152;SDS011;18656;50.580;11.392;2023-08-01T02:20:55;1.05;;;0.98;;
32152;SDS011;18656;50.580;11.392;2023-08-01T02:23:22;0.63;;;0.63;;
32152;SDS011;18656;50.580;11.392;2023-08-01T02:25:49;0.93;;;0.82;;
32152;SDS011;18656;50.580;11.392;2023-08-01T02:28:16;8.52;;;0.80;;
32152;SDS011;18656;50.580;11.392;2023-08-01T02:30:43;1.65;;;0.80;;
32152;SDS011;18656;50.580;11.392;2023-08-01T02:33:11;0.77;;;0.77;;
32152;SDS011;18656;50.580;11.392;2023-08-01T02:35:38;0.68;;;0.63;;
32152;SDS011;18656;50.580;11.392;2023-08-01T02:38:06;3.42;;;0.80;;
32152;SDS011;18656;50.580;11.392;2023-08-01T02:40:34;0.80;;;0.80;;
32152;SDS011;18656;50.580;11.392;2023-08-01T02:43:01;0.60;;;0.60;;
32152;SDS011;18656;50.580;11.392;2023-08-01T02:45:28;2.25;;;0.80;;
32152;SDS011;18656;50.580;11.392;2023-08-01T02:47:55;2.20;;;0.90;;
32152;SDS011;18656;50.580;11.392;2023-08-01T02:50:23;2.17;;;0.90;;
32152;SDS011;18656;50.580;11.392;2023-08-01T02:52:51;2.42;;;1.17;;
32152;SDS011;18656;50.580;11.392;2023-08-01T02:55:18;2.75;;;0.90;;
32152;SDS011;18656;50.580;11.392;2023-08-01T02:57:45;4.50;;;1.48;;
32152;SDS011;18656;50.580;11.392;2023-08-01T03:00:12;2.10;;;0.65;;
32152;SDS011;18656;50.580;11.392;2023-08-01T03:02:40;1.52;;;0.70;;
32152;SDS011;18656;50.580;11.392;2023-08-01T03:05:08;2.28;;;0.80;;
32152;SDS011;18656;50.580;11.392;2023-08-01T03:07:35;0.68;;;0.68;;
32152;SDS011;18656;50.580;11.392;2023-08-01T03:10:03;1.10;;;0.88;;
32152;SDS011;18656;50.580;11.392;2023-08-01T03:12:30;2.53;;;0.70;;
32152;SDS011;18656;50.580;11.392;2023-08-01T03:14:57;1.88;;;0.73;;
32152;SDS011;18656;50.580;11.392;2023-08-01T03:17:24;0.60;;;0.60;;
32152;SDS011;18656;50.580;11.392;2023-08-01T03:19:52;0.60;;;0.60;;
32152;SDS011;18656;50.580;11.392;2023-08-01T03:22:19;2.47;;;0.70;;
32152;SDS011;18656;50.580;11.392;2023-08-01T03:24:46;0.47;;;0.47;;
32152;SDS011;18656;50.580;11.392;2023-08-01T03:27:14;0.65;;;0.40;;
32152;SDS011;18656;50.580;11.392;2023-08-01T03:29:41;0.50;;;0.35;;
32152;SDS011;18656;50.580;11.392;2023-08-01T03:32:08;0.40;;;0.40;;
32152;SDS011;18656;50.580;11.392;2023-08-01T03:34:35;0.68;;;0.47;;
32152;SDS011;18656;50.580;11.392;2023-08-01T03:37:05;0.82;;;0.43;;
32152;SDS011;18656;50.580;11.392;2023-08-01T03:39:32;0.57;;;0.43;;
32152;SDS011;18656;50.580;11.392;2023-08-01T03:41:59;1.52;;;0.35;;
32152;SDS011;18656;50.580;11.392;2023-08-01T03:44:27;0.40;;;0.40;;
32152;SDS011;18656;50.580;11.392;2023-08-01T03:46:54;1.60;;;0.52;;
32152;SDS011;18656;50.580;11.392;2023-08-01T03:49:21;1.45;;;0.60;;
32152;SDS011;18656;50.580;11.392;2023-08-01T03:51:49;0.52;;;0.52;;
32152;SDS011;18656;50.580;11.392;2023-08-01T03:54:16;0.77;;;0.43;;
32152;SDS011;18656;50.580;11.392;2023-08-01T03:56:43;1.30;;;0.52;;
32152;SDS011;18656;50.580;11.392;2023-08-01T03:59:12;2.45;;;0.57;;
32152;SDS011;18656;50.580;11.392;2023-08-01T04:01:40;0.50;;;0.40;;
32152;SDS011;18656;50.580;11.392;2023-08-01T04:04:08;0.50;;;0.50;;
32152;SDS011;18656;50.580;11.392;2023-08-01T04:06:35;0.50;;;0.50;;
32152;SDS011;18656;50.580;11.392;2023-08-01T04:09:03;0.52;;;0.52;;
32152;SDS011;18656;50.580;11.392;2023-08-01T04:11:32;0.68;;;0.60;;
32152;SDS011;18656;50.580;11.392;2023-08-01T04:14:00;0.57;;;0.45;;
32152;SDS011;18656;50.580;11.392;2023-08-01T04:16:27;0.93;;;0.60;;
32152;SDS011;18656;50.580;11.392;2023-08-01T04:18:54;0.65;;;0.55;;
32152;SDS011;18656;50.580;11.392;2023-08-01T04:21:21;2.05;;;0.70;;
32152;SDS011;18656;50.580;11.392;2023-08-01T04:23:48;0.70;;;0.70;;
32152;SDS011;18656;50.580;11.392;2023-08-01T04:26:16;1.88;;;1.10;;
32152;SDS011;18656;50.580;11.392;2023-08-01T04:28:45;1.05;;;0.80;;
32152;SDS011;18656;50.580;11.392;2023-08-01T04:31:13;0.80;;;0.80;;
32152;SDS011;18656;50.580;11.392;2023-08-01T04:33:40;2.55;;;0.95;;
32152;SDS011;18656;50.580;11.392;2023-08-01T04:36:08;1.13;;;1.00;;
32152;SDS011;18656;50.580;11.392;2023-08-01T04:38:35;2.55;;;1.02;;
32152;SDS011;18656;50.580;11.392;2023-08-01T04:41:02;2.63;;;1.10;;
32152;SDS011;18656;50.580;11.392;2023-08-01T04:43:29;1.90;;;1.63;;
32152;SDS011;18656;50.580;11.392;2023-08-01T04:45:56;4.82;;;1.50;;
32152;SDS011;18656;50.580;11.392;2023-08-01T04:48:24;2.92;;;1.25;;
32152;SDS011;18656;50.580;11.392;2023-08-01T04:50:51;2.08;;;1.45;;
32152;SDS011;18656;50.580;11.392;2023-08-01T04:53:18;1.30;;;1.20;;
32152;SDS011;18656;50.580;11.392;2023-08-01T04:55:45;1.50;;;1.30;;
32152;SDS011;18656;50.580;11.392;2023-08-01T04:58:12;1.35;;;1.15;;
32152;SDS011;18656;50.580;11.392;2023-08-01T05:00:40;1.38;;;1.27;;
32152;SDS011;18656;50.580;11.392;2023-08-01T05:03:08;1.40;;;1.30;;
32152;SDS011;18656;50.580;11.392;2023-08-01T05:05:35;2.05;;;1.20;;
32152;SDS011;18656;50.580;11.392;2023-08-01T05:08:02;2.70;;;1.52;;
32152;SDS011;18656;50.580;11.392;2023-08-01T05:10:30;1.75;;;1.52;;
32152;SDS011;18656;50.580;11.392;2023-08-01T05:12:57;1.35;;;1.25;;
32152;SDS011;18656;50.580;11.392;2023-08-01T05:15:24;5.88;;;1.50;;
32152;SDS011;18656;50.580;11.392;2023-08-01T05:17:54;1.48;;;1.23;;
32152;SDS011;18656;50.580;11.392;2023-08-01T05:20:22;1.15;;;1.15;;
32152;SDS011;18656;50.580;11.392;2023-08-01T05:22:49;2.13;;;1.60;;
32152;SDS011;18656;50.580;11.392;2023-08-01T05:25:18;2.65;;;1.38;;
32152;SDS011;18656;50.580;11.392;2023-08-01T05:27:46;1.38;;;1.20;;
32152;SDS011;18656;50.580;11.392;2023-08-01T05:30:13;4.32;;;1.40;;
32152;SDS011;18656;50.580;11.392;2023-08-01T05:32:40;4.00;;;1.30;;
32152;SDS011;18656;50.580;11.392;2023-08-01T05:35:09;1.65;;;1.33;;
32152;SDS011;18656;50.580;11.392;2023-08-01T05:37:37;1.20;;;0.95;;
32152;SDS011;18656;50.580;11.392;2023-08-01T05:40:04;1.70;;;0.85;;
32152;SDS011;18656;50.580;11.392;2023-08-01T05:42:31;1.08;;;0.82;;
32152;SDS011;18656;50.580;11.392;2023-08-01T05:44:59;2.05;;;0.90;;
32152;SDS011;18656;50.580;11.392;2023-08-01T05:47:26;1.95;;;0.60;;
32152;SDS011;18656;50.580;11.392;2023-08-01T05:49:54;0.40;;;0.40;;
32152;SDS011;18656;50.580;11.392;2023-08-01T05:52:21;1.00;;;0.70;;
32152;SDS011;18656;50.580;11.392;2023-08-01T05:54:48;2.15;;;0.45;;
32152;SDS011;18656;50.580;11.392;2023-08-01T05:57:16;2.35;;;0.40;;
32152;SDS011;18656;50.580;11.392;2023-08-01T05:59:43;1.25;;;0.52;;
32152;SDS011;18656;50.580;11.392;2023-08-01T06:02:10;3.40;;;0.60;;
32152;SDS011;18656;50.580;11.392;2023-08-01T06:04:37;1.67;;;0.50;;
32152;SDS011;18656;50.580;11.392;2023-08-01T06:07:05;1.38;;;0.70;;
32152;SDS011;18656;50.580;11.392;2023-08-01T06:09:32;4.20;;;0.60;;
32152;SDS011;18656;50.580;11.392;2023-08-01T06:11:59;1.85;;;0.75;;
32152;SDS011;18656;50.580;11.392;2023-08-01T06:14:27;1.85;;;0.60;;
32152;SDS011;18656;50.580;11.392;2023-08-01T06:16:54;4.88;;;1.30;;
32152;SDS011;18656;50.580;11.392;2023-08-01T06:19:21;1.88;;;1.38;;
32152;SDS011;18656;50.580;11.392;2023-08-01T06:21:49;2.80;;;1.63;;
32152;SDS011;18656;50.580;11.392;2023-08-01T06:24:16;2.85;;;1.55;;
32152;SDS011;18656;50.580;11.392;2023-08-01T06:26:43;1.90;;;1.00;;
32152;SDS011;18656;50.580;11.392;2023-08-01T06:29:10;2.38;;;0.70;;
32152;SDS011;18656;50.580;11.392;2023-08-01T06:31:38;1.13;;;1.02;;
32152;SDS011;18656;50.580;11.392;2023-08-01T06:34:05;1.90;;;0.70;;
32152;SDS011;18656;50.580;11.392;2023-08-01T06:36:32;1.55;;;0.90;;
32152;SDS011;18656;50.580;11.392;2023-08-01T06:38:59;1.15;;;0.63;;
32152;SDS011;18656;50.580;11.392;2023-08-01T06:41:26;1.10;;;0.90;;
32152;SDS011;18656;50.580;11.392;2023-08-01T06:43:54;4.53;;;1.45;;
32152;SDS011;18656;50.580;11.392;2023-08-01T06:46:21;6.97;;;1.85;;
32152;SDS011;18656;50.580;11.392;2023-08-01T06:48:48;2.45;;;1.00;;
32152;SDS011;18656;50.580;11.392;2023-08-01T06:51:15;2.83;;;1.50;;
32152;SDS011;18656;50.580;11.392;2023-08-01T06:53:43;2.15;;;1.40;;
32152;SDS011;18656;50.580;11.392;2023-08-01T06:56:10;3.20;;;0.93;;
32152;SDS011;18656;50.580;11.392;2023-08-01T06:58:37;1.27;;;0.90;;
32152;SDS011;18656;50.580;11.392;2023-08-01T07:01:04;1.75;;;0.90;;
32152;SDS011;18656;50.580;11.392;2023-08-01T07:03:32;4.03;;;1.58;;
32152;SDS011;18656;50.580;11.392;2023-08-01T07:05:59;0.93;;;0.77;;
32152;SDS011;18656;50.580;11.392;2023-08-01T07:08:26;0.60;;;0.60;;
32152;SDS011;18656;50.580;11.392;2023-08-01T07:10:54;3.15;;;2.70;;
32152;SDS011;18656;50.580;11.392;2023-08-01T07:13:21;2.20;;;1.17;;
32152;SDS011;18656;50.580;11.392;2023-08-01T07:15:48;0.68;;;0.50;;
32152;SDS011;18656;50.580;11.392;2023-08-01T07:18:16;2.03;;;0.50;;
32152;SDS011;18656;50.580;11.392;2023-08-01T07:20:45;1.02;;;0.60;;
32152;SDS011;18656;50.580;11.392;2023-08-01T07:23:12;0.75;;;0.40;;
32152;SDS011;18656;50.580;11.392;2023-08-01T07:25:39;0.90;;;0.40;;
32152;SDS011;18656;50.580;11.392;2023-08-01T07:28:06;1.15;;;0.50;;
32152;SDS011;18656;50.580;11.392;2023-08-01T07:30:34;0.73;;;0.45;;
32152;SDS011;18656;50.580;11.392;2023-08-01T07:33:01;0.77;;;0.68;;
32152;SDS011;18656;50.580;11.392;2023-08-01T07:35:28;0.55;;;0.55;;
32152;SDS011;18656;50.580;11.392;2023-08-01T07:37:55;0.68;;;0.68;;
32152;SDS011;18656;50.580;11.392;2023-08-01T07:40:23;0.55;;;0.40;;
32152;SDS011;18656;50.580;11.392;2023-08-01T07:42:50;0.73;;;0.50;;
32152;SDS011;18656;50.580;11.392;2023-08-01T07:45:17;2.30;;;0.30;;
32152;SDS011;18656;50.580;11.392;2023-08-01T07:47:45;0.40;;;0.40;;
32152;SDS011;18656;50.580;11.392;2023-08-01T07:50:13;1.67;;;0.47;;
32152;SDS011;18656;50.580;11.392;2023-08-01T07:52:40;0.50;;;0.40;;
32152;SDS011;18656;50.580;11.392;2023-08-01T07:55:07;0.30;;;0.30;;
32152;SDS011;18656;50.580;11.392;2023-08-01T07:57:35;0.40;;;0.40;;
32152;SDS011;18656;50.580;11.392;2023-08-01T08:00:02;0.40;;;0.40;;
32152;SDS011;18656;50.580;11.392;2023-08-01T08:02:29;0.98;;;0.52;;
32152;SDS011;18656;50.580;11.392;2023-08-01T08:04:57;0.95;;;0.70;;
32152;SDS011;18656;50.580;11.392;2023-08-01T08:07:24;0.50;;;0.30;;
32152;SDS011;18656;50.580;11.392;2023-08-01T08:09:51;0.40;;;0.40;;
32152;SDS011;18656;50.580;11.392;2023-08-01T08:12:22;0.25;;;0.25;;
32152;SDS011;18656;50.580;11.392;2023-08-01T08:14:49;0.40;;;0.40;;
32152;SDS011;18656;50.580;11.392;2023-08-01T08:17:16;4.07;;;0.63;;
32152;SDS011;18656;50.580;11.392;2023-08-01T08:19:43;0.20;;;0.20;;
32152;SDS011;18656;50.580;11.392;2023-08-01T08:22:11;0.20;;;0.20;;
32152;SDS011;18656;50.580;11.392;2023-08-01T08:24:39;2.00;;;0.43;;
32152;SDS011;18656;50.580;11.392;2023-08-01T08:27:06;1.48;;;0.40;;
32152;SDS011;18656;50.580;11.392;2023-08-01T08:29:33;0.40;;;0.40;;
32152;SDS011;18656;50.580;11.392;2023-08-01T08:32:00;0.35;;;0.20;;
32152;SDS011;18656;50.580;11.392;2023-08-01T08:34:27;0.30;;;0.30;;
32152;SDS011;18656;50.580;11.392;2023-08-01T08:36:55;0.20;;;0.20;;
32152;SDS011;18656;50.580;11.392;2023-08-01T08:39:22;0.20;;;0.20;;
32152;SDS011;18656;50.580;11.392;2023-08-01T08:41:50;0.30;;;0.30;;
32152;SDS011;18656;50.580;11.392;2023-08-01T08:44:18;0.30;;;0.20;;
32152;SDS011;18656;50.580;11.392;2023-08-01T08:46:51;1.75;;;0.30;;
32152;SDS011;18656;50.580;11.392;2023-08-01T08:49:21;0.52;;;0.30;;
32152;SDS011;18656;50.580;11.392;2023-08-01T08:51:48;0.40;;;0.40;;
32152;SDS011;18656;50.580;11.392;2023-08-01T08:54:16;1.48;;;0.40;;
32152;SDS011;18656;50.580;11.392;2023-08-01T08:56:43;0.55;;;0.55;;
32152;SDS011;18656;50.580;11.392;2023-08-01T08:59:11;1.13;;;0.50;;
32152;SDS011;18656;50.580;11.392;2023-08-01T09:01:39;0.63;;;0.47;;
32152;SDS011;18656;50.580;11.392;2023-08-01T09:04:06;0.82;;;0.70;;
32152;SDS011;18656;50.580;11.392;2023-08-01T09:06:40;0.80;;;0.80;;
32152;SDS011;18656;50.580;11.392;2023-08-01T09:11:40;2.65;;;1.40;;
32152;SDS011;18656;50.580;11.392;2023-08-01T09:14:08;0.70;;;0.70;;
32152;SDS011;18656;50.580;11.392;2023-08-01T09:16:35;1.15;;;0.80;;
32152;SDS011;18656;50.580;11.392;2023-08-01T09:19:02;1.83;;;0.82;;
32152;SDS011;18656;50.580;11.392;2023-08-01T09:21:31;0.65;;;0.65;;
32152;SDS011;18656;50.580;11.392;2023-08-01T09:24:11;1.30;;;0.70;;
32152;SDS011;18656;50.580;11.392;2023-08-01T09:26:39;0.50;;;0.50;;
32152;SDS011;18656;50.580;11.392;2023-08-01T09:29:06;1.00;;;0.60;;
32152;SDS011;18656;50.580;11.392;2023-08-01T09:31:40;1.15;;;0.50;;
32152;SDS011;18656;50.580;11.392;2023-08-01T09:34:26;4.95;;;0.60;;
32152;SDS011;18656;50.580;11.392;2023-08-01T09:36:57;0.63;;;0.50;;
32152;SDS011;18656;50.580;11.392;2023-08-01T09:39:25;2.00;;;0.55;;
32152;SDS011;18656;50.580;11.392;2023-08-01T09:41:56;0.60;;;0.60;;
32152;SDS011;18656;50.580;11.392;2023-08-01T09:44:23;2.60;;;2.40;;
32152;SDS011;18656;50.580;11.392;2023-08-01T09:46:59;4.75;;;4.35;;
32152;SDS011;18656;50.580;11.392;2023-08-01T09:49:30;2.25;;;2.00;;
32152;SDS011;18656;50.580;11.392;2023-08-01T09:51:58;3.38;;;1.63;;
32152;SDS011;18656;50.580;11.392;2023-08-01T09:54:25;3.08;;;0.70;;
32152;SDS011;18656;50.580;11.392;2023-08-01T09:56:53;0.70;;;0.70;;
32152;SDS011;18656;50.580;11.392;2023-08-01T09:59:22;4.07;;;1.50;;
32152;SDS011;18656;50.580;11.392;2023-08-01T10:01:50;2.60;;;0.90;;
32152;SDS011;18656;50.580;11.392;2023-08-01T10:04:22;2.88;;;0.80;;
32152;SDS011;18656;50.580;11.392;2023-08-01T10:06:53;2.20;;;0.70;;
32152;SDS011;18656;50.580;11.392;2023-08-01T10:09:21;0.85;;;0.50;;
32152;SDS011;18656;50.580;11.392;2023-08-01T10:11:49;2.65;;;2.45;;
32152;SDS011;18656;50.580;11.392;2023-08-01T10:14:19;1.10;;;0.70;;
32152;SDS011;18656;50.580;11.392;2023-08-01T10:16:47;3.45;;;0.70;;
32152;SDS011;18656;50.580;11.392;2023-08-01T10:19:14;0.85;;;0.60;;
32152;SDS011;18656;50.580;11.392;2023-08-01T10:21:42;0.90;;;0.90;;
32152;SDS011;18656;50.580;11.392;2023-08-01T10:24:10;1.13;;;0.40;;
32152;SDS011;18656;50.580;11.392;2023-08-01T10:26:38;2.17;;;1.60;;
32152;SDS011;18656;50.580;11.392;2023-08-01T10:29:06;0.50;;;0.50;;
32152;SDS011;18656;50.580;11.392;2023-08-01T10:31:33;0.90;;;0.60;;
32152;SDS011;18656;50.580;11.392;2023-08-01T10:34:05;1.50;;;0.80;;
32152;SDS011;18656;50.580;11.392;2023-08-01T10:36:32;0.80;;;0.80;;
32152;SDS011;18656;50.580;11.392;2023-08-01T10:39:00;1.17;;;0.70;;
32152;SDS011;18656;50.580;11.392;2023-08-01T10:44:11;3.70;;;0.60;;
32152;SDS011;18656;50.580;11.392;2023-08-01T10:46:55;3.10;;;0.88;;
32152;SDS011;18656;50.580;11.392;2023-08-01T10:52:02;0.50;;;0.50;;
32152;SDS011;18656;50.580;11.392;2023-08-01T10:54:30;1.27;;;0.80;;
32152;SDS011;18656;50.580;11.392;2023-08-01T10:56:58;1.65;;;0.95;;
32152;SDS011;18656;50.580;11.392;2023-08-01T10:59:26;0.80;;;0.80;;
32152;SDS011;18656;50.580;11.392;2023-08-01T11:01:57;1.63;;;0.80;;
32152;SDS011;18656;50.580;11.392;2023-08-01T11:04:24;0.90;;;0.90;;
32152;SDS011;18656;50.580;11.392;2023-08-01T11:06:53;0.70;;;0.70;;
32152;SDS011;18656;50.580;11.392;2023-08-01T11:09:22;1.83;;;1.00;;
32152;SDS011;18656;50.580;11.392;2023-08-01T11:11:54;2.15;;;2.05;;
32152;SDS011;18656;50.580;11.392;2023-08-01T11:14:23;1.10;;;1.10;;
32152;SDS011;18656;50.580;11.392;2023-08-01T11:16:50;1.00;;;0.95;;
32152;SDS011;18656;50.580;11.392;2023-08-01T11:19:23;1.00;;;1.00;;
32152;SDS011;18656;50.580;11.392;2023-08-01T11:21:51;1.20;;;1.20;;
32152;SDS011;18656;50.580;11.392;2023-08-01T11:24:19;1.00;;;1.00;;
32152;SDS011;18656;50.580;11.392;2023-08-01T11:26:47;1.40;;;1.30;;
32152;SDS011;18656;50.580;11.392;2023-08-01T11:29:15;1.13;;;1.13;;
32152;SDS011;18656;50.580;11.392;2023-08-01T11:31:56;1.30;;;1.30;;
32152;SDS011;18656;50.580;11.392;2023-08-01T11:34:23;1.60;;;1.50;;
32152;SDS011;18656;50.580;11.392;2023-08-01T11:36:51;1.45;;;1.35;;
32152;SDS011;18656;50.580;11.392;2023-08-01T11:39:20;1.55;;;1.45;;
32152;SDS011;18656;50.580;11.392;2023-08-01T11:41:48;1.50;;;1.40;;
32152;SDS011;18656;50.580;11.392;2023-08-01T11:44:16;1.10;;;1.10;;
32152;SDS011;18656;50.580;11.392;2023-08-01T11:46:43;1.95;;;1.42;;
32152;SDS011;18656;50.580;11.392;2023-08-01T11:49:13;1.45;;;1.35;;
32152;SDS011;18656;50.580;11.392;2023-08-01T11:51:41;2.42;;;1.60;;
32152;SDS011;18656;50.580;11.392;2023-08-01T11:54:10;1.55;;;1.40;;
32152;SDS011;18656;50.580;11.392;2023-08-01T11:56:38;1.40;;;1.30;;
32152;SDS011;18656;50.580;11.392;2023-08-01T11:59:09;1.95;;;1.13;;
32152;SDS011;18656;50.580;11.392;2023-08-01T12:01:38;1.67;;;1.40;;
32152;SDS011;18656;50.580;11.392;2023-08-01T12:04:05;1.20;;;1.20;;
32152;SDS011;18656;50.580;11.392;2023-08-01T12:06:33;1.33;;;1.23;;
32152;SDS011;18656;50.580;11.392;2023-08-01T12:09:13;1.35;;;1.25;;
32152;SDS011;18656;50.580;11.392;2023-08-01T12:11:41;1.50;;;1.35;;
32152;SDS011;18656;50.580;11.392;2023-08-01T12:14:12;1.60;;;1.50;;
32152;SDS011;18656;50.580;11.392;2023-08-01T12:16:41;2.38;;;1.92;;
32152;SDS011;18656;50.580;11.392;2023-08-01T12:19:11;4.20;;;1.48;;
32152;SDS011;18656;50.580;11.392;2023-08-01T12:21:38;1.75;;;1.60;;
32152;SDS011;18656;50.580;11.392;2023-08-01T12:24:05;1.50;;;1.40;;
32152;SDS011;18656;50.580;11.392;2023-08-01T12:26:32;1.67;;;1.58;;
32152;SDS011;18656;50.580;11.392;2023-08-01T12:29:00;3.58;;;1.48;;
32152;SDS011;18656;50.580;11.392;2023-08-01T12:31:27;2.13;;;1.20;;
32152;SDS011;18656;50.580;11.392;2023-08-01T12:33:55;1.60;;;1.50;;
32152;SDS011;18656;50.580;11.392;2023-08-01T12:36:22;2.13;;;1.40;;
32152;SDS011;18656;50.580;11.392;2023-08-01T12:38:49;3.80;;;1.83;;
32152;SDS011;18656;50.580;11.392;2023-08-01T12:41:17;1.73;;;1.50;;
32152;SDS011;18656;50.580;11.392;2023-08-01T12:43:44;1.92;;;1.50;;
32152;SDS011;18656;50.580;11.392;2023-08-01T12:46:12;3.63;;;1.63;;
32152;SDS011;18656;50.580;11.392;2023-08-01T12:48:39;1.33;;;1.30;;
32152;SDS011;18656;50.580;11.392;2023-08-01T12:51:06;2.90;;;1.52;;
32152;SDS011;18656;50.580;11.392;2023-08-01T12:53:33;1.60;;;1.50;;
32152;SDS011;18656;50.580;11.392;2023-08-01T12:56:01;1.70;;;1.55;;
32152;SDS011;18656;50.580;11.392;2023-08-01T12:58:28;3.50;;;1.80;;
32152;SDS011;18656;50.580;11.392;2023-08-01T13:00:55;1.60;;;1.50;;
32152;SDS011;18656;50.580;11.392;2023-08-01T13:03:23;1.80;;;1.70;;
32152;SDS011;18656;50.580;11.392;2023-08-01T13:05:50;1.80;;;1.67;;
32152;SDS011;18656;50.580;11.392;2023-08-01T13:08:19;3.75;;;1.83;;
32152;SDS011;18656;50.580;11.392;2023-08-01T13:10:46;2.08;;;1.70;;
32152;SDS011;18656;50.580;11.392;2023-08-01T13:13:16;1.92;;;1.70;;
32152;SDS011;18656;50.580;11.392;2023-08-01T13:15:43;2.53;;;1.85;;
32152;SDS011;18656;50.580;11.392;2023-08-01T13:18:10;2.53;;;1.88;;
32152;SDS011;18656;50.580;11.392;2023-08-01T13:20:38;2.47;;;1.58;;
32152;SDS011;18656;50.580;11.392;2023-08-01T13:23:05;1.70;;;1.42;;
32152;SDS011;18656;50.580;11.392;2023-08-01T13:25:33;1.50;;;1.50;;
32152;SDS011;18656;50.580;11.392;2023-08-01T13:28:00;2.55;;;1.83;;
32152;SDS011;18656;50.580;11.392;2023-08-01T13:30:28;1.73;;;1.63;;
32152;SDS011;18656;50.580;11.392;2023-08-01T13:32:55;1.92;;;1.50;;
32152;SDS011;18656;50.580;11.392;2023-08-01T13:35:22;3.17;;;1.70;;
32152;SDS011;18656;50.580;11.392;2023-08-01T13:37:49;5.47;;;1.80;;
32152;SDS011;18656;50.580;11.392;2023-08-01T13:40:17;1.80;;;1.70;;
32152;SDS011;18656;50.580;11.392;2023-08-01T13:42:44;1.83;;;1.73;;
32152;SDS011;18656;50.580;11.392;2023-08-01T13:45:11;1.90;;;1.80;;
32152;SDS011;18656;50.580;11.392;2023-08-01T13:47:38;2.30;;;1.88;;
32152;SDS011;18656;50.580;11.392;2023-08-01T13:50:06;2.20;;;2.03;;
32152;SDS011;18656;50.580;11.392;2023-08-01T13:52:33;6.10;;;2.92;;
32152;SDS011;18656;50.580;11.392;2023-08-01T13:55:01;4.07;;;1.55;;
32152;SDS011;18656;50.580;11.392;2023-08-01T13:57:29;4.53;;;1.80;;
32152;SDS011;18656;50.580;11.392;2023-08-01T13:59:57;2.25;;;1.60;;
32152;SDS011;18656;50.580;11.392;2023-08-01T14:02:38;1.60;;;1.38;;
32152;SDS011;18656;50.580;11.392;2023-08-01T14:05:05;1.38;;;1.33;;
32152;SDS011;18656;50.580;11.392;2023-08-01T14:07:36;2.78;;;1.40;;
32152;SDS011;18656;50.580;11.392;2023-08-01T14:10:07;1.50;;;1.40;;
32152;SDS011;18656;50.580;11.392;2023-08-01T14:12:36;3.75;;;1.30;;
32152;SDS011;18656;50.580;11.392;2023-08-01T14:15:03;1.58;;;1.48;;
32152;SDS011;18656;50.580;11.392;2023-08-01T14:17:30;1.33;;;1.23;;
32152;SDS011;18656;50.580;11.392;2023-08-01T14:19:58;1.70;;;1.38;;
32152;SDS011;18656;50.580;11.392;2023-08-01T14:22:25;1.40;;;1.30;;
32152;SDS011;18656;50.580;11.392;2023-08-01T14:24:52;2.42;;;1.13;;
32152;SDS011;18656;50.580;11.392;2023-08-01T14:27:20;1.35;;;1.10;;
32152;SDS011;18656;50.580;11.392;2023-08-01T14:29:47;2.17;;;1.10;;
32152;SDS011;18656;50.580;11.392;2023-08-01T14:32:17;1.30;;;1.20;;
32152;SDS011;18656;50.580;11.392;2023-08-01T14:34:44;0.88;;;0.88;;
32152;SDS011;18656;50.580;11.392;2023-08-01T14:37:11;1.65;;;1.00;;
32152;SDS011;18656;50.580;11.392;2023-08-01T14:39:39;1.33;;;0.82;;
32152;SDS011;18656;50.580;11.392;2023-08-01T14:42:06;3.47;;;0.90;;
32152;SDS011;18656;50.580;11.392;2023-08-01T14:44:33;1.05;;;0.77;;